Terminal Aerodrome Forecast
Issued by NWS Billings, MT

Home | Current Version | Previous Version | Text Only | Print | Product List | Glossary On
Versions: 1 2 3 4 5 6 7 8 9 10 11 12 13 14 15 16 17 18 19 20 21 22 23 24 25 26 27 28 29 30 31 32 33 34 35 36 37 38 39 40
000
FTUS45 KBYZ 270533
TAFBIL
TAF
KBIL 270533Z 2706/2806 VRB05KT P6SM SCT080 BKN100
     FM270900 VRB05KT P6SM BKN040
     FM271500 28008KT P6SM VCSH BKN040
     FM271900 28008KT P6SM VCTS BKN050CB
     FM280200 33006KT P6SM SCT050 BKN100=

USA.gov is the U.S. government's official web portal to all federal, state and local government web resources and services.